Time;durP1;ratioP1;P1;durP2;ratioP2;P2;SDS_P1;SDS_P2;PMS_P1;PMS_P2;Temp;Humidity;BMP_temperature;BMP_pressure;BME280_temperature;BME280_humidity;BME280_pressure;Samples;Min_cycle;Max_cycle;Signal;HPM_P1;HPM_P2
2021/01/02 00:02:16;;;;;;;9.18;5.32;;;7.30;86.70;;;;;;5015644;28;20029;-51
2021/01/02 00:04:50;;;;;;;12.98;5.55;;;7.40;86.80;;;;;;5016384;28;20018;-51
2021/01/02 00:07:28;;;;;;;9.52;4.65;;;7.40;86.70;;;;;;4999236;28;20053;-52
2021/01/02 00:10:02;;;;;;;11.43;5.03;;;7.40;86.70;;;;;;5007622;28;20022;-51
2021/01/02 00:13:19;;;;;;;10.27;6.07;;;7.40;86.70;;;;;;5015343;28;20057;-51
2021/01/02 00:16:03;;;;;;;15.10;5.78;;;7.40;86.70;;;;;;5007924;28;20045;-51
2021/01/02 00:18:31;;;;;;;8.85;4.80;;;7.40;86.80;;;;;;5008857;28;20363;-52
2021/01/02 00:21:01;;;;;;;12.38;5.72;;;7.40;86.80;;;;;;4996465;28;20444;-52
2021/01/02 00:23:45;;;;;;;13.52;5.75;;;7.40;86.80;;;;;;5015731;28;20535;-52
2021/01/02 00:26:41;;;;;;;9.48;4.85;;;7.40;86.80;;;;;;5015997;28;20026;-51
2021/01/02 00:29:18;;;;;;;10.80;5.38;;;7.40;86.80;;;;;;5013960;28;20065;-51
2021/01/02 00:32:08;;;;;;;11.13;4.88;;;7.30;87.50;;;;;;5009284;28;20030;-52
2021/01/02 00:34:52;;;;;;;13.57;5.15;;;7.40;86.80;;;;;;4996216;28;20026;-51
2021/01/02 00:37:25;;;;;;;9.57;4.78;;;7.40;86.80;;;;;;4996137;28;20468;-52
2021/01/02 00:40:08;;;;;;;7.93;5.00;;;7.40;86.80;;;;;;4996326;28;20476;-52
2021/01/02 00:42:34;;;;;;;9.43;4.47;;;7.40;86.80;;;;;;5008319;28;20133;-51
2021/01/02 00:45:01;;;;;;;9.55;5.25;;;7.40;86.80;;;;;;5015535;28;20148;-51
2021/01/02 00:47:31;;;;;;;13.02;5.45;;;7.40;86.80;;;;;;5015877;28;20034;-52
2021/01/02 00:49:58;;;;;;;15.73;5.45;;;7.40;86.80;;;;;;5015686;28;20033;-52
2021/01/02 00:52:55;;;;;;;13.18;5.32;;;7.40;86.90;;;;;;5004061;28;20169;-51
2021/01/02 00:56:02;;;;;;;10.38;5.50;;;7.40;86.90;;;;;;4995817;28;20061;-51
2021/01/02 00:58:49;;;;;;;8.35;4.57;;;7.40;86.90;;;;;;4996031;28;20026;-51
2021/01/02 01:01:20;;;;;;;12.75;5.28;;;7.30;86.90;;;;;;4997090;28;20093;-51
2021/01/02 01:04:22;;;;;;;12.07;5.60;;;7.30;86.90;;;;;;5015252;28;20142;-51
2021/01/02 01:06:54;;;;;;;12.95;5.93;;;7.40;87.00;;;;;;5002046;28;20464;-51
2021/01/02 01:09:24;;;;;;;10.30;5.25;;;7.30;87.00;;;;;;4998906;28;20040;-52
2021/01/02 01:11:53;;;;;;;11.32;5.97;;;7.40;87.10;;;;;;5001152;28;20018;-51
2021/01/02 01:14:20;;;;;;;11.65;5.97;;;7.40;87.00;;;;;;5015021;28;20117;-51
2021/01/02 01:16:50;;;;;;;11.32;6.05;;;7.40;87.10;;;;;;5011816;28;20072;-52
2021/01/02 01:19:19;;;;;;;12.55;5.43;;;7.40;87.10;;;;;;5015194;28;20037;-52
2021/01/02 01:21:49;;;;;;;11.10;5.38;;;7.30;87.00;;;;;;5014795;28;20073;-51
2021/01/02 01:24:23;;;;;;;12.48;5.68;;;7.40;87.10;;;;;;5015014;28;20022;-51
2021/01/02 01:27:13;;;;;;;10.35;5.82;;;7.30;87.10;;;;;;5014442;28;20481;-52
2021/01/02 01:29:43;;;;;;;14.77;6.07;;;7.30;87.10;;;;;;5014866;28;20029;-51
2021/01/02 01:32:10;;;;;;;6.70;4.75;;;7.30;87.10;;;;;;5014758;28;20269;-52
2021/01/02 01:34:36;;;;;;;8.50;5.10;;;7.30;87.10;;;;;;5014740;28;20341;-51
2021/01/02 01:37:07;;;;;;;10.75;5.65;;;7.30;87.10;;;;;;5007267;28;20527;-51
2021/01/02 01:39:34;;;;;;;12.77;5.85;;;7.30;87.10;;;;;;4999496;28;20033;-51
2021/01/02 01:42:05;;;;;;;11.65;6.13;;;7.30;87.10;;;;;;5014156;28;20033;-51
2021/01/02 01:44:54;;;;;;;11.13;5.57;;;7.30;87.10;;;;;;5014642;28;20558;-51
2021/01/02 01:47:23;;;;;;;12.98;5.93;;;7.30;87.10;;;;;;5005275;28;20076;-51
2021/01/02 01:50:24;;;;;;;12.20;5.72;;;7.30;87.10;;;;;;4995024;28;20077;-52
2021/01/02 01:52:50;;;;;;;10.40;5.97;;;7.40;87.20;;;;;;4997432;28;20030;-52
2021/01/02 01:55:29;;;;;;;11.80;6.00;;;7.30;87.10;;;;;;5014399;28;20026;-51
2021/01/02 01:58:11;;;;;;;18.38;6.45;;;7.30;87.10;;;;;;5013735;28;20418;-51
2021/01/02 02:00:50;;;;;;;15.77;6.82;;;7.30;87.20;;;;;;5021185;28;20033;-51
2021/01/02 02:03:27;;;;;;;13.63;6.28;;;7.30;87.20;;;;;;5020314;28;20120;-52
2021/01/02 02:06:22;;;;;;;14.63;6.88;;;7.30;87.20;;;;;;5014014;28;20108;-51
2021/01/02 02:09:00;;;;;;;12.90;6.22;;;7.30;87.10;;;;;;5014057;28;20531;-52
2021/01/02 02:11:42;;;;;;;9.70;4.68;;;7.30;87.20;;;;;;5013824;28;20448;-51
2021/01/02 02:14:14;;;;;;;13.23;5.97;;;7.30;87.20;;;;;;4994462;28;20042;-52
2021/01/02 02:16:45;;;;;;;15.68;6.53;;;7.30;87.20;;;;;;4993746;28;20037;-51
2021/01/02 02:19:46;;;;;;;12.07;6.18;;;7.30;87.30;;;;;;4994472;28;20030;-51
2021/01/02 02:22:16;;;;;;;12.00;6.60;;;7.30;87.20;;;;;;5011195;28;20487;-51
2021/01/02 02:24:47;;;;;;;12.63;5.95;;;7.30;87.30;;;;;;5014027;28;20221;-52
2021/01/02 02:27:14;;;;;;;11.70;6.03;;;7.30;87.20;;;;;;5006790;28;20045;-52
2021/01/02 02:30:05;;;;;;;10.80;5.90;;;7.30;87.30;;;;;;4994140;28;20460;-51
2021/01/02 02:32:34;;;;;;;;;;;7.30;87.30;;;;;;4994341;28;20376;-51
2021/01/02 02:35:03;;;;;;;12.88;6.10;;;7.30;87.20;;;;;;4999878;28;19909;-51
2021/01/02 02:37:29;;;;;;;12.38;6.00;;;7.30;87.30;;;;;;5004377;28;20526;-52
2021/01/02 02:39:54;;;;;;;12.32;6.32;;;7.30;87.30;;;;;;4993918;28;20073;-52
2021/01/02 02:42:22;;;;;;;10.20;6.32;;;7.30;87.30;;;;;;5003615;28;20443;-51
2021/01/02 02:44:52;;;;;;;10.40;6.10;;;7.30;87.30;;;;;;5013459;28;20029;-51
2021/01/02 02:47:19;;;;;;;11.30;5.63;;;7.30;87.30;;;;;;5013045;28;20041;-52
2021/01/02 02:49:51;;;;;;;11.43;6.55;;;7.30;87.30;;;;;;5013217;28;20607;-52
2021/01/02 02:52:24;;;;;;;12.45;5.95;;;7.30;87.30;;;;;;5013018;28;20126;-51
2021/01/02 02:54:50;;;;;;;13.90;6.63;;;7.30;87.30;;;;;;5010500;28;20030;-52
2021/01/02 02:57:17;;;;;;;11.05;6.20;;;7.30;87.30;;;;;;5012950;28;20069;-51
2021/01/02 02:59:43;;;;;;;13.02;6.13;;;7.30;87.30;;;;;;5013473;28;20029;-52
2021/01/02 03:02:10;;;;;;;10.52;4.97;;;7.30;87.20;;;;;;5012984;28;20022;-52
2021/01/02 03:04:35;;;;;;;11.57;6.63;;;7.30;87.20;;;;;;4993760;28;20038;-52
2021/01/02 03:07:05;;;;;;;13.30;6.15;;;7.30;87.30;;;;;;5008534;28;20359;-51
2021/01/02 03:09:32;;;;;;;12.95;6.65;;;7.20;87.20;;;;;;5013319;28;20044;-51
2021/01/02 03:11:58;;;;;;;12.88;6.50;;;7.30;87.30;;;;;;5008398;28;20073;-51
2021/01/02 03:14:24;;;;;;;11.00;5.60;;;7.30;87.30;;;;;;5013191;28;20395;-51
2021/01/02 03:16:56;;;;;;;11.70;6.13;;;7.30;87.30;;;;;;5010661;28;20459;-51
2021/01/02 03:19:23;;;;;;;11.70;6.38;;;7.30;87.30;;;;;;5013324;28;20030;-52
2021/01/02 03:21:49;;;;;;;12.45;5.35;;;7.30;87.30;;;;;;5000838;28;20034;-51
2021/01/02 03:24:15;;;;;;;12.73;6.30;;;7.30;87.30;;;;;;4993525;28;20041;-52
2021/01/02 03:26:40;;;;;;;8.80;5.65;;;7.30;87.30;;;;;;4997814;28;20053;-52
2021/01/02 03:29:06;;;;;;;11.75;6.32;;;7.20;87.20;;;;;;5015835;28;20439;-52
2021/01/02 03:31:32;;;;;;;12.82;5.53;;;7.20;87.30;;;;;;5005856;28;20038;-52
2021/01/02 03:33:57;;;;;;;13.38;5.40;;;7.20;87.30;;;;;;4997784;28;20061;-51
2021/01/02 03:36:23;;;;;;;11.60;6.50;;;7.20;87.20;;;;;;4999256;28;20033;-52
2021/01/02 03:38:56;;;;;;;11.32;6.05;;;7.20;87.20;;;;;;5016987;28;20506;-51
2021/01/02 03:41:23;;;;;;;11.07;5.63;;;7.30;87.30;;;;;;5016196;28;20076;-52
2021/01/02 03:43:49;;;;;;;9.38;5.10;;;7.20;87.30;;;;;;5016803;28;20025;-51
2021/01/02 03:46:15;;;;;;;10.77;5.35;;;7.20;87.30;;;;;;5016790;28;20030;-52
2021/01/02 03:48:41;;;;;;;13.32;5.53;;;7.20;87.30;;;;;;5010207;28;20506;-52
2021/01/02 03:51:06;;;;;;;12.48;6.05;;;7.20;87.30;;;;;;4997185;28;20037;-51
2021/01/02 03:53:32;;;;;;;12.23;6.03;;;7.20;87.30;;;;;;5006347;28;20033;-52
2021/01/02 03:55:58;;;;;;;11.75;5.93;;;7.20;87.30;;;;;;5016445;28;20057;-52
2021/01/02 03:58:23;;;;;;;11.45;5.65;;;7.20;87.30;;;;;;5016002;28;20053;-51
2021/01/02 04:00:49;;;;;;;11.13;5.78;;;7.30;87.30;;;;;;5014037;28;20127;-51
2021/01/02 04:03:15;;;;;;;12.82;6.03;;;7.20;87.30;;;;;;4996751;28;20026;-52
2021/01/02 04:05:45;;;;;;;9.15;5.45;;;7.20;87.30;;;;;;5000935;28;20500;-51
2021/01/02 04:08:11;;;;;;;12.27;6.25;;;7.20;87.30;;;;;;5016481;28;20025;-52
2021/01/02 04:10:38;;;;;;;10.63;5.75;;;7.20;87.40;;;;;;5016067;28;20489;-51
2021/01/02 04:13:03;;;;;;;13.90;6.30;;;7.20;87.40;;;;;;5015429;28;20037;-52
2021/01/02 04:15:29;;;;;;;10.45;5.05;;;7.20;87.40;;;;;;5016504;28;20080;-52
2021/01/02 04:17:55;;;;;;;8.82;5.30;;;7.20;87.40;;;;;;5005028;28;20080;-51
2021/01/02 04:20:23;;;;;;;9.57;5.40;;;7.20;87.40;;;;;;4996708;28;20038;-52
2021/01/02 04:22:48;;;;;;;12.73;5.68;;;7.20;87.40;;;;;;4996256;28;20033;-51
2021/01/02 04:25:14;;;;;;;9.82;5.50;;;7.20;87.30;;;;;;4996273;28;20034;-51
2021/01/02 04:27:40;;;;;;;8.30;4.90;;;7.20;87.40;;;;;;5007685;28;20341;-51
2021/01/02 04:30:06;;;;;;;10.10;5.22;;;7.20;87.30;;;;;;5016082;28;20096;-51
2021/01/02 04:32:32;;;;;;;9.65;5.45;;;7.20;87.30;;;;;;5013830;28;20034;-52
2021/01/02 04:34:57;;;;;;;9.20;5.07;;;7.20;87.30;;;;;;5015941;28;20040;-51
2021/01/02 04:37:27;;;;;;;8.63;5.10;;;7.20;87.30;;;;;;5015793;28;20033;-52
2021/01/02 04:39:53;;;;;;;11.13;5.28;;;7.20;87.30;;;;;;5014589;28;20107;-51
2021/01/02 04:42:21;;;;;;;9.85;5.07;;;7.20;87.30;;;;;;5015707;28;20124;-51
2021/01/02 04:44:50;;;;;;;9.60;4.68;;;7.20;87.30;;;;;;5000077;28;20026;-51
2021/01/02 04:47:17;;;;;;;7.95;4.80;;;7.20;87.30;;;;;;4995904;28;20037;-51
2021/01/02 04:49:43;;;;;;;11.30;4.90;;;7.20;87.30;;;;;;4996153;28;20463;-52
2021/01/02 04:52:10;;;;;;;9.15;5.03;;;7.20;87.30;;;;;;4995638;28;20034;-51
2021/01/02 04:54:40;;;;;;;11.02;4.75;;;7.20;87.30;;;;;;5013641;28;20446;-51
2021/01/02 04:57:09;;;;;;;8.88;4.80;;;7.20;87.40;;;;;;5013564;28;20073;-51
2021/01/02 04:59:37;;;;;;;8.50;4.78;;;7.20;87.30;;;;;;4996070;28;20045;-51
2021/01/02 05:02:07;;;;;;;10.93;5.20;;;7.20;87.30;;;;;;4995625;28;20027;-52
2021/01/02 05:04:33;;;;;;;11.02;5.10;;;7.20;87.30;;;;;;4995693;28;20057;-52
2021/01/02 05:06:59;;;;;;;10.30;5.05;;;7.20;87.30;;;;;;5010176;28;20447;-52
2021/01/02 05:09:24;;;;;;;7.72;4.70;;;7.20;87.20;;;;;;5014920;28;20025;-52
2021/01/02 05:11:50;;;;;;;11.23;6.07;;;7.20;87.30;;;;;;5003123;28;20084;-52
2021/01/02 05:14:15;;;;;;;9.80;4.78;;;7.20;87.20;;;;;;5015320;28;20033;-52
2021/01/02 05:16:42;;;;;;;9.65;4.65;;;7.20;87.20;;;;;;5012661;28;20029;-51
2021/01/02 05:19:10;;;;;;;8.35;4.88;;;7.20;87.20;;;;;;4995486;28;20030;-52
2021/01/02 05:21:42;;;;;;;10.48;5.22;;;7.30;87.30;;;;;;4995532;28;20109;-52
2021/01/02 05:24:11;;;;;;;8.23;4.40;;;7.20;87.20;;;;;;4995955;28;20062;-52
2021/01/02 05:26:44;;;;;;;7.80;4.35;;;7.20;87.20;;;;;;5010450;28;20116;-52
2021/01/02 05:29:16;;;;;;;10.40;4.75;;;7.20;87.20;;;;;;5014703;28;20025;-52
2021/01/02 05:31:53;;;;;;;9.65;4.70;;;7.20;87.20;;;;;;5014375;28;20058;-52
2021/01/02 05:34:22;;;;;;;9.55;4.80;;;7.20;87.20;;;;;;5014019;28;20022;-52
2021/01/02 05:37:05;;;;;;;10.07;4.43;;;7.20;87.20;;;;;;5014776;28;20451;-52
2021/01/02 05:39:35;;;;;;;9.10;4.53;;;7.20;87.20;;;;;;5008095;28;20081;-52
2021/01/02 05:42:00;;;;;;;8.25;4.65;;;7.20;87.20;;;;;;4994756;28;20058;-52
2021/01/02 05:44:40;;;;;;;6.70;4.63;;;7.20;87.20;;;;;;4994954;28;20490;-52
2021/01/02 05:47:10;;;;;;;8.48;4.28;;;7.20;87.20;;;;;;4995210;28;20031;-52
2021/01/02 05:49:40;;;;;;;;;;;7.20;87.20;;;;;;4995571;28;20029;-52
2021/01/02 05:52:11;;;;;;;10.57;4.10;;;7.20;87.20;;;;;;5009490;28;19917;-52
2021/01/02 05:54:48;;;;;;;6.75;4.30;;;7.20;87.20;;;;;;4998468;28;20097;-52
2021/01/02 05:57:23;;;;;;;10.00;4.53;;;7.20;87.20;;;;;;4995012;28;20054;-52
2021/01/02 05:59:54;;;;;;;7.30;3.88;;;7.20;87.10;;;;;;4994566;28;20034;-52
2021/01/02 06:02:22;;;;;;;8.25;4.18;;;7.20;87.10;;;;;;5013394;28;20037;-52
2021/01/02 06:05:05;;;;;;;6.47;3.60;;;7.20;87.10;;;;;;5014321;28;20033;-51
2021/01/02 06:07:40;;;;;;;9.07;4.40;;;7.20;87.10;;;;;;5001740;28;20360;-52
2021/01/02 06:10:08;;;;;;;10.23;5.03;;;7.20;87.40;;;;;;5014447;28;20049;-52
2021/01/02 06:12:35;;;;;;;7.90;4.20;;;7.20;87.10;;;;;;5001690;28;20027;-52
2021/01/02 06:15:14;;;;;;;7.72;4.43;;;7.20;87.10;;;;;;4994621;28;20026;-52
2021/01/02 06:17:42;;;;;;;9.05;4.32;;;7.20;87.20;;;;;;5004331;28;20026;-52
2021/01/02 06:20:13;;;;;;;9.18;4.47;;;7.20;87.10;;;;;;5013352;28;20452;-52
2021/01/02 06:22:42;;;;;;;8.30;4.60;;;7.20;87.10;;;;;;4997325;28;20468;-52
2021/01/02 06:25:11;;;;;;;10.23;3.90;;;7.20;87.10;;;;;;4994555;28;20379;-51
2021/01/02 06:27:41;;;;;;;10.35;4.90;;;7.20;87.20;;;;;;4994224;28;20025;-52
2021/01/02 06:30:07;;;;;;;8.98;4.43;;;7.20;87.10;;;;;;4994116;28;20360;-52
2021/01/02 06:32:33;;;;;;;8.98;4.60;;;7.20;87.10;;;;;;4994151;28;20022;-52
2021/01/02 06:35:07;;;;;;;9.43;4.00;;;7.20;87.10;;;;;;4996729;28;20438;-51
2021/01/02 06:37:51;;;;;;;7.60;4.35;;;7.20;87.10;;;;;;5013811;28;20088;-52
2021/01/02 06:40:20;;;;;;;7.90;4.30;;;7.20;87.10;;;;;;5013464;28;20118;-52
2021/01/02 06:43:00;;;;;;;6.75;3.95;;;7.20;87.10;;;;;;5013039;28;20022;-52
2021/01/02 06:45:35;;;;;;;10.97;4.97;;;7.20;87.00;;;;;;5013982;28;20056;-51
2021/01/02 06:48:24;;;;;;;10.38;4.30;;;7.20;86.90;;;;;;4996285;28;20114;-51
2021/01/02 06:50:57;;;;;;;7.78;4.32;;;7.20;86.90;;;;;;5010722;28;20129;-51
2021/01/02 06:53:36;;;;;;;7.40;4.43;;;7.20;86.90;;;;;;5013201;28;20058;-51
2021/01/02 06:56:14;;;;;;;11.32;5.13;;;7.20;86.90;;;;;;5013582;28;20026;-52
2021/01/02 06:58:43;;;;;;;9.85;4.60;;;7.20;86.90;;;;;;5013321;28;20022;-52
2021/01/02 07:01:29;;;;;;;8.57;4.57;;;7.20;86.90;;;;;;5013897;28;20038;-51
2021/01/02 07:03:55;;;;;;;7.68;4.07;;;7.20;86.90;;;;;;5010257;28;20507;-51
2021/01/02 07:08:59;;;;;;;8.73;4.95;;;7.20;86.90;;;;;;5009981;28;20386;-51
2021/01/02 07:11:29;;;;;;;6.78;4.13;;;7.20;86.90;;;;;;5012921;28;20436;-51
2021/01/02 07:14:11;;;;;;;8.60;4.30;;;7.20;86.90;;;;;;5012755;28;20105;-51
2021/01/02 07:16:37;;;;;;;7.07;3.63;;;7.20;86.80;;;;;;5012693;28;20260;-51
2021/01/02 07:19:06;;;;;;;7.72;4.35;;;7.20;86.80;;;;;;4993792;28;20053;-52
2021/01/02 07:21:38;;;;;;;9.02;4.57;;;7.20;86.70;;;;;;4993235;28;20459;-51
2021/01/02 07:24:23;;;;;;;7.00;4.10;;;7.20;86.70;;;;;;4993755;28;20027;-51
2021/01/02 07:27:05;;;;;;;8.77;4.30;;;7.20;86.80;;;;;;4993867;28;20037;-51
2021/01/02 07:29:46;;;;;;;8.40;4.47;;;7.20;86.70;;;;;;5005322;28;20460;-52
2021/01/02 07:32:12;;;;;;;;;;;7.20;86.70;;;;;;5013090;28;20030;-52
2021/01/02 07:34:41;;;;;;;7.93;4.57;;;7.20;86.70;;;;;;5013360;28;19945;-52
2021/01/02 07:37:18;;;;;;;9.75;4.15;;;7.20;86.70;;;;;;5006834;28;20067;-52
2021/01/02 07:40:09;;;;;;;7.55;3.97;;;7.20;86.70;;;;;;5016741;28;20026;-52
2021/01/02 07:42:58;;;;;;;7.60;3.72;;;7.20;86.70;;;;;;5014104;28;20033;-51
2021/01/02 07:45:26;;;;;;;8.13;3.90;;;7.20;86.70;;;;;;5005318;28;20058;-51
2021/01/02 07:47:56;;;;;;;8.75;4.15;;;7.20;86.60;;;;;;5012813;28;20052;-52
2021/01/02 07:50:24;;;;;;;7.00;3.97;;;7.20;86.70;;;;;;5012682;28;20168;-51
2021/01/02 07:52:54;;;;;;;9.30;4.22;;;7.20;86.60;;;;;;5005370;28;20511;-51
2021/01/02 07:55:25;;;;;;;7.22;4.05;;;7.20;86.60;;;;;;5015730;28;20108;-51
2021/01/02 07:57:50;;;;;;;6.93;3.35;;;7.20;86.70;;;;;;5032548;28;20116;-52
2021/01/02 08:00:16;;;;;;;7.80;4.55;;;7.20;86.70;;;;;;5014653;28;20124;-51
2021/01/02 08:02:42;;;;;;;11.20;4.18;;;7.20;86.70;;;;;;5014247;28;20030;-51
2021/01/02 08:05:12;;;;;;;8.45;4.07;;;7.20;86.70;;;;;;4997165;28;20530;-52
2021/01/02 08:07:39;;;;;;;7.03;4.10;;;7.20;86.60;;;;;;4994033;28;20583;-51
2021/01/02 08:10:10;;;;;;;7.45;3.90;;;7.20;86.60;;;;;;5004973;28;20030;-52
2021/01/02 08:12:36;;;;;;;8.13;4.25;;;7.20;86.60;;;;;;5011766;28;20105;-51
2021/01/02 08:15:04;;;;;;;9.07;4.32;;;7.20;86.60;;;;;;4993933;28;20419;-51
2021/01/02 08:17:38;;;;;;;7.13;4.15;;;7.20;86.60;;;;;;5005098;28;20029;-52
2021/01/02 08:20:05;;;;;;;6.63;3.78;;;7.20;86.60;;;;;;5016332;28;20049;-52
2021/01/02 08:22:36;;;;;;;6.55;3.35;;;7.20;86.60;;;;;;5013564;28;20036;-52
2021/01/02 08:25:09;;;;;;;6.82;3.28;;;7.20;86.60;;;;;;5012362;28;20045;-52
2021/01/02 08:27:35;;;;;;;6.72;3.50;;;7.20;86.60;;;;;;5013407;28;20104;-51
2021/01/02 08:30:05;;;;;;;8.50;4.00;;;7.20;86.60;;;;;;5015437;28;20065;-52
2021/01/02 08:32:34;;;;;;;8.00;4.32;;;7.30;86.70;;;;;;5015772;28;20021;-51
2021/01/02 08:35:00;;;;;;;10.68;4.28;;;7.20;86.60;;;;;;5015724;28;20026;-52
2021/01/02 08:37:26;;;;;;;7.10;3.78;;;7.20;86.60;;;;;;5011416;28;20033;-51
2021/01/02 08:40:08;;;;;;;8.77;4.85;;;7.20;86.60;;;;;;5005907;28;20031;-51
2021/01/02 08:42:44;;;;;;;11.27;4.90;;;7.20;86.60;;;;;;5013099;28;20030;-52
2021/01/02 08:45:12;;;;;;;8.38;4.10;;;7.20;86.50;;;;;;5015605;28;20033;-51
2021/01/02 08:47:39;;;;;;;8.25;4.13;;;7.30;86.60;;;;;;5015425;28;20038;-52
2021/01/02 08:50:13;;;;;;;7.88;4.22;;;7.30;86.60;;;;;;5005469;28;20333;-52
2021/01/02 08:52:39;;;;;;;8.48;4.00;;;7.20;86.50;;;;;;4997963;28;20360;-51
2021/01/02 08:55:12;;;;;;;7.40;3.45;;;7.20;86.60;;;;;;5014658;28;20037;-51
2021/01/02 08:57:53;;;;;;;10.32;3.90;;;7.20;86.50;;;;;;5015605;28;20371;-52
2021/01/02 09:00:29;;;;;;;7.35;3.92;;;7.20;86.50;;;;;;5015492;28;20049;-52
2021/01/02 09:02:54;;;;;;;11.05;4.13;;;7.30;86.50;;;;;;5015055;28;20478;-52
2021/01/02 09:05:28;;;;;;;8.02;3.78;;;7.30;87.20;;;;;;5014046;28;20034;-51
2021/01/02 09:08:18;;;;;;;8.88;4.97;;;7.30;86.50;;;;;;5012247;28;20030;-52
2021/01/02 09:10:45;;;;;;;10.98;5.30;;;7.30;86.80;;;;;;5015057;28;20129;-51
2021/01/02 09:13:12;;;;;;;8.35;4.65;;;7.30;86.50;;;;;;5004668;28;20038;-51
2021/01/02 09:15:49;;;;;;;7.10;4.28;;;7.30;86.40;;;;;;4995601;28;20057;-51
2021/01/02 09:18:36;;;;;;;8.20;3.92;;;7.30;86.40;;;;;;5010843;28;20025;-52
2021/01/02 09:21:05;;;;;;;11.95;4.78;;;7.30;86.40;;;;;;5006757;28;20100;-52
2021/01/02 09:23:34;;;;;;;9.57;4.65;;;7.30;86.40;;;;;;4995579;28;20058;-52
2021/01/02 09:26:00;;;;;;;7.60;4.20;;;7.30;86.40;;;;;;4994910;28;20456;-51
2021/01/02 09:28:26;;;;;;;7.93;4.30;;;7.30;86.40;;;;;;4995259;28;20101;-52
2021/01/02 09:30:52;;;;;;;9.25;4.32;;;7.30;86.40;;;;;;4995303;28;20042;-52
2021/01/02 09:33:18;;;;;;;9.50;4.32;;;7.30;86.40;;;;;;4997846;28;20547;-51
2021/01/02 09:35:45;;;;;;;8.85;3.97;;;7.30;86.30;;;;;;4995535;28;20037;-51
2021/01/02 09:38:12;;;;;;;11.38;4.35;;;7.30;86.20;;;;;;5008820;28;20069;-51
2021/01/02 09:40:43;;;;;;;10.43;4.07;;;7.30;86.20;;;;;;5014246;28;20114;-51
2021/01/02 09:43:12;;;;;;;;;;;7.30;86.10;;;;;;5015095;28;20026;-52
2021/01/02 09:45:39;;;;;;;8.97;4.17;;;7.30;86.00;;;;;;5014664;28;20342;-52
2021/01/02 09:48:06;;;;;;;9.60;4.43;;;7.30;85.90;;;;;;5014832;28;20265;-51
2021/01/02 09:50:36;;;;;;;7.90;4.15;;;7.30;85.80;;;;;;5013223;28;20022;-51
2021/01/02 09:53:03;;;;;;;8.00;4.35;;;7.30;85.80;;;;;;5000051;28;20041;-52
2021/01/02 09:55:29;;;;;;;15.68;5.57;;;7.30;85.80;;;;;;5003454;28;20053;-52
2021/01/02 09:57:54;;;;;;;6.95;3.97;;;7.40;85.80;;;;;;4994613;28;20385;-52
2021/01/02 10:00:21;;;;;;;9.90;4.50;;;7.40;86.50;;;;;;4994816;28;20026;-51
2021/01/02 10:02:47;;;;;;;9.90;4.32;;;7.40;85.70;;;;;;5002083;28;20341;-52
2021/01/02 10:05:14;;;;;;;8.80;4.60;;;7.40;85.60;;;;;;5014472;28;20105;-51
2021/01/02 10:07:39;;;;;;;9.57;4.63;;;7.40;85.60;;;;;;4994659;28;20479;-52
2021/01/02 10:10:06;;;;;;;11.57;4.05;;;7.40;85.60;;;;;;5007390;28;20061;-52
2021/01/02 10:12:32;;;;;;;8.18;3.80;;;7.40;85.60;;;;;;5013641;28;20109;-51
2021/01/02 10:14:58;;;;;;;8.73;4.88;;;7.40;85.60;;;;;;5010789;28;20165;-51
2021/01/02 10:17:27;;;;;;;11.38;4.20;;;7.40;85.60;;;;;;5011751;28;20447;-51
2021/01/02 10:19:53;;;;;;;8.75;4.40;;;7.40;85.60;;;;;;5012404;28;20055;-51
2021/01/02 10:22:20;;;;;;;11.65;4.15;;;7.40;85.60;;;;;;5013913;28;20446;-51
2021/01/02 10:24:49;;;;;;;8.23;4.60;;;7.40;85.60;;;;;;4996699;28;20034;-51
2021/01/02 10:27:16;;;;;;;10.80;4.78;;;7.40;85.60;;;;;;4994598;28;20022;-51
2021/01/02 10:29:47;;;;;;;12.60;4.40;;;7.40;85.60;;;;;;4994384;28;20030;-51
2021/01/02 10:32:14;;;;;;;7.47;3.95;;;7.40;85.50;;;;;;4993841;28;20040;-51
2021/01/02 10:34:41;;;;;;;8.02;3.80;;;7.40;85.60;;;;;;4995315;28;20045;-51
2021/01/02 10:37:07;;;;;;;9.02;4.70;;;7.40;85.60;;;;;;5010199;28;20561;-52
2021/01/02 10:39:33;;;;;;;8.02;4.47;;;7.50;86.00;;;;;;5012987;28;20034;-52
2021/01/02 10:41:58;;;;;;;8.85;4.60;;;7.40;85.60;;;;;;5013201;28;20431;-51
2021/01/02 10:44:24;;;;;;;6.30;3.95;;;7.50;85.60;;;;;;5013043;28;20401;-51
2021/01/02 10:46:53;;;;;;;6.68;3.50;;;7.50;85.60;;;;;;5004726;28;20038;-51
2021/01/02 10:49:20;;;;;;;10.98;4.15;;;7.50;85.60;;;;;;4994073;28;20023;-51
2021/01/02 10:51:46;;;;;;;7.80;4.03;;;7.50;85.60;;;;;;4993393;28;20033;-51
2021/01/02 10:54:14;;;;;;;9.27;4.30;;;7.50;85.50;;;;;;4999329;28;20026;-51
2021/01/02 10:56:51;;;;;;;9.95;4.60;;;7.50;85.50;;;;;;4994047;28;20368;-51
2021/01/02 10:59:19;;;;;;;6.95;4.18;;;7.50;85.50;;;;;;5005851;28;20053;-50
2021/01/02 11:01:47;;;;;;;10.70;4.32;;;7.50;85.70;;;;;;4996535;28;20047;-51
2021/01/02 11:04:15;;;;;;;8.05;3.83;;;7.50;85.10;;;;;;4993941;28;20379;-51
2021/01/02 11:06:43;;;;;;;10.30;4.82;;;7.40;85.40;;;;;;5005973;28;20030;-51
2021/01/02 11:09:11;;;;;;;12.05;4.50;;;7.40;85.40;;;;;;5013398;28;20025;-51
2021/01/02 11:11:37;;;;;;;9.10;4.75;;;7.40;85.10;;;;;;5012269;28;20474;-51
2021/01/02 11:14:03;;;;;;;11.98;4.30;;;7.50;84.90;;;;;;5011661;28;20046;-51
2021/01/02 11:16:34;;;;;;;11.57;4.47;;;7.50;84.80;;;;;;5001716;28;20136;-51
2021/01/02 11:18:59;;;;;;;6.60;4.22;;;7.50;84.70;;;;;;5001208;28;20022;-52
2021/01/02 11:21:26;;;;;;;7.35;3.90;;;7.50;84.60;;;;;;5011444;28;20490;-51
2021/01/02 11:23:52;;;;;;;8.13;3.88;;;7.50;84.50;;;;;;5013360;28;20026;-51
2021/01/02 11:26:18;;;;;;;11.32;5.63;;;7.50;84.50;;;;;;5008416;28;20034;-51
2021/01/02 11:28:44;;;;;;;9.10;4.57;;;7.50;84.40;;;;;;5004785;28;20440;-51
2021/01/02 11:31:10;;;;;;;7.35;4.32;;;7.60;84.50;;;;;;4993466;28;20046;-51
2021/01/02 11:33:35;;;;;;;9.10;4.35;;;7.60;84.40;;;;;;4993423;28;20456;-51
2021/01/02 11:36:02;;;;;;;8.70;4.32;;;7.60;84.30;;;;;;4993836;28;20036;-51
2021/01/02 11:38:27;;;;;;;9.50;4.10;;;7.60;84.40;;;;;;4993472;28;20337;-51
2021/01/02 11:40:53;;;;;;;7.97;3.72;;;7.60;84.40;;;;;;4993341;28;20518;-51
2021/01/02 11:43:19;;;;;;;12.07;4.80;;;7.60;84.30;;;;;;5006237;28;20080;-51
2021/01/02 11:45:47;;;;;;;10.15;4.68;;;7.60;84.30;;;;;;5013183;28;20022;-51
2021/01/02 11:48:13;;;;;;;10.75;5.03;;;7.60;84.30;;;;;;5004656;28;20062;-51
2021/01/02 11:50:39;;;;;;;10.68;5.68;;;7.60;84.30;;;;;;5015906;28;20037;-51
2021/01/02 11:53:05;;;;;;;8.27;3.65;;;7.60;84.20;;;;;;5015696;28;20030;-52
2021/01/02 11:55:31;;;;;;;9.20;4.20;;;7.70;84.30;;;;;;5016113;28;20091;-51
2021/01/02 11:57:57;;;;;;;9.73;3.85;;;7.60;84.30;;;;;;5014677;28;20483;-51
2021/01/02 12:00:23;;;;;;;9.85;4.65;;;7.70;84.30;;;;;;4996911;28;20026;-51
2021/01/02 12:02:48;;;;;;;7.75;4.07;;;7.60;84.30;;;;;;4996382;28;20044;-51
2021/01/02 12:05:14;;;;;;;10.45;4.40;;;7.60;84.30;;;;;;4997437;28;20024;-51
2021/01/02 12:07:40;;;;;;;8.40;4.82;;;7.70;84.30;;;;;;5016512;28;20455;-51
2021/01/02 12:10:06;;;;;;;9.60;4.38;;;7.70;84.30;;;;;;5015481;28;20105;-51
2021/01/02 12:12:32;;;;;;;8.93;4.82;;;7.60;84.30;;;;;;5016063;28;20033;-51
2021/01/02 12:14:57;;;;;;;8.88;4.07;;;7.70;84.50;;;;;;5015919;28;20030;-52
2021/01/02 12:17:23;;;;;;;9.65;4.00;;;7.70;84.40;;;;;;5015861;28;20033;-51
2021/01/02 12:19:49;;;;;;;7.25;3.90;;;7.60;84.30;;;;;;5001048;28;20037;-51
2021/01/02 12:22:14;;;;;;;8.23;4.30;;;7.70;84.40;;;;;;5000580;28;20049;-51
2021/01/02 12:24:41;;;;;;;10.85;4.22;;;7.70;84.40;;;;;;5007588;28;20054;-52
2021/01/02 12:27:08;;;;;;;11.90;5.53;;;7.70;84.40;;;;;;5006894;28;20565;-51
2021/01/02 12:29:35;;;;;;;12.60;4.93;;;7.70;84.40;;;;;;5011914;28;20022;-51
2021/01/02 12:32:05;;;;;;;12.93;5.03;;;7.60;84.40;;;;;;4999027;28;20026;-51
2021/01/02 12:34:33;;;;;;;10.05;4.78;;;7.60;84.30;;;;;;5010457;28;20415;-51
2021/01/02 12:37:03;;;;;;;10.20;5.75;;;7.60;84.30;;;;;;5015891;28;20038;-51
2021/01/02 12:39:31;;;;;;;13.15;5.03;;;7.60;84.30;;;;;;5003624;28;20073;-51
2021/01/02 12:42:00;;;;;;;8.65;5.47;;;7.60;84.30;;;;;;4995907;28;20042;-52
2021/01/02 12:44:27;;;;;;;12.45;5.47;;;7.60;84.30;;;;;;4998433;28;20439;-51
2021/01/02 12:46:56;;;;;;;15.45;5.57;;;7.60;84.30;;;;;;5014254;28;20041;-52
2021/01/02 12:49:25;;;;;;;13.90;5.85;;;7.60;84.30;;;;;;5012310;28;20486;-51
2021/01/02 12:51:56;;;;;;;15.35;6.18;;;7.60;84.30;;;;;;4995619;28;20038;-51
2021/01/02 12:54:22;;;;;;;10.48;4.65;;;7.60;84.40;;;;;;5009933;28;20022;-51
2021/01/02 12:56:50;;;;;;;10.43;5.32;;;7.60;84.40;;;;;;5013598;28;20034;-51
2021/01/02 12:59:21;;;;;;;11.48;4.55;;;7.60;84.30;;;;;;5007273;28;20026;-51
2021/01/02 13:01:47;;;;;;;10.15;5.65;;;7.60;84.30;;;;;;5014500;28;20463;-51
2021/01/02 13:04:13;;;;;;;12.15;5.63;;;7.60;84.40;;;;;;5015348;28;20467;-51
2021/01/02 13:06:39;;;;;;;11.07;5.35;;;7.60;84.40;;;;;;5015680;28;20490;-51
2021/01/02 13:09:05;;;;;;;11.38;5.78;;;7.60;84.40;;;;;;5014805;28;20030;-51
2021/01/02 13:11:32;;;;;;;15.60;6.00;;;7.60;84.50;;;;;;5014810;28;20034;-52
2021/01/02 13:13:57;;;;;;;10.00;5.20;;;7.60;84.50;;;;;;5014690;28;20034;-51